Time;durP1;ratioP1;P1;durP2;ratioP2;P2;SDS_P1;SDS_P2;PMS_P1;PMS_P2;Temp;Humidity;BMP_temperature;BMP_pressure;BME280_temperature;BME280_humidity;BME280_pressure;Samples;Min_cycle;Max_cycle;Signal;HPM_P1;HPM_P2
2022/09/30 00:00:56;;;;;;;0.00;0.00;;;15.10;87.50;;;;;;4159032;28;20171;-64
2022/09/30 00:03:37;;;;;;;0.20;0.20;;;15.10;87.60;;;;;;4159133;28;20056;-64
2022/09/30 00:06:19;;;;;;;0.00;0.00;;;15.10;87.60;;;;;;4160656;28;20130;-65
2022/09/30 00:09:00;;;;;;;0.00;0.00;;;15.10;87.80;;;;;;4159929;28;20110;-65
2022/09/30 00:11:42;;;;;;;0.00;0.00;;;15.10;87.70;;;;;;4160668;28;20181;-65
2022/09/30 00:14:23;;;;;;;;;;;15.10;87.70;;;;;;4161160;28;20406;-65
2022/09/30 00:17:05;;;;;;;0.00;0.00;;;15.10;87.70;;;;;;4160253;28;19943;-65
2022/09/30 00:19:47;;;;;;;0.00;0.00;;;15.10;87.80;;;;;;4171187;28;20051;-65
2022/09/30 00:22:28;;;;;;;0.00;0.00;;;15.10;87.80;;;;;;4176977;28;20047;-64
2022/09/30 00:25:09;;;;;;;0.00;0.00;;;15.10;87.90;;;;;;4175765;28;20056;-65
2022/09/30 00:27:50;;;;;;;0.00;0.00;;;15.00;87.80;;;;;;4167483;28;20295;-65
2022/09/30 00:30:31;;;;;;;0.00;0.00;;;15.10;87.90;;;;;;4160224;28;20060;-65
2022/09/30 00:33:13;;;;;;;0.00;0.00;;;15.10;87.80;;;;;;4159115;28;20060;-64
2022/09/30 00:35:54;;;;;;;0.00;0.00;;;15.00;87.80;;;;;;4159626;28;20290;-64
2022/09/30 00:38:35;;;;;;;0.00;0.00;;;15.10;87.80;;;;;;4159676;28;20056;-64
2022/09/30 00:41:16;;;;;;;0.88;0.80;;;15.10;87.90;;;;;;4160038;28;20052;-64
2022/09/30 00:43:57;;;;;;;0.00;0.00;;;15.00;87.80;;;;;;4160194;28;20138;-64
2022/09/30 00:46:39;;;;;;;0.10;0.10;;;15.00;88.00;;;;;;4174128;28;20511;-66
2022/09/30 00:49:26;;;;;;;0.03;0.03;;;15.00;88.10;;;;;;4165270;28;20127;-69
2022/09/30 00:52:07;;;;;;;0.00;0.00;;;15.00;88.20;;;;;;4159572;28;20048;-67
2022/09/30 00:54:49;;;;;;;0.00;0.00;;;15.00;88.10;;;;;;4159799;28;20453;-67
2022/09/30 00:57:31;;;;;;;0.00;0.00;;;15.00;88.00;;;;;;4159818;28;20060;-67
2022/09/30 01:00:12;;;;;;;0.00;0.00;;;15.00;88.00;;;;;;4159004;28;20072;-67
2022/09/30 01:02:54;;;;;;;0.20;0.20;;;15.10;88.20;;;;;;4159663;28;20513;-69
2022/09/30 01:05:36;;;;;;;0.00;0.00;;;15.00;88.20;;;;;;4159714;28;20398;-69
2022/09/30 01:08:20;;;;;;;0.00;0.00;;;15.00;88.20;;;;;;4159167;28;20080;-68
2022/09/30 01:11:01;;;;;;;0.00;0.00;;;15.00;88.20;;;;;;4159641;28;20441;-69
2022/09/30 01:13:51;;;;;;;0.00;0.00;;;15.00;88.30;;;;;;4159796;28;20192;-68
2022/09/30 01:16:55;;;;;;;0.00;0.00;;;15.00;88.20;;;;;;4166741;28;20391;-68
2022/09/30 01:20:04;;;;;;;0.00;0.00;;;15.00;88.20;;;;;;4169955;28;20405;-67
2022/09/30 01:22:59;;;;;;;0.10;0.10;;;15.00;89.20;;;;;;4175687;28;20484;-67
2022/09/30 01:26:01;;;;;;;0.00;0.00;;;15.00;88.40;;;;;;4159019;28;20052;-67
2022/09/30 01:29:25;;;;;;;0.00;0.00;;;15.00;88.50;;;;;;4159158;28;20410;-68
2022/09/30 01:32:16;;;;;;;0.00;0.00;;;15.00;88.60;;;;;;4158843;28;20399;-68
2022/09/30 01:35:14;;;;;;;0.00;0.00;;;15.00;88.60;;;;;;4158547;28;20048;-67
2022/09/30 01:38:03;;;;;;;0.43;0.43;;;14.90;88.70;;;;;;4158286;28;20048;-67
2022/09/30 01:40:49;;;;;;;3.10;1.88;;;14.90;88.80;;;;;;4158657;28;20055;-69
2022/09/30 01:43:39;;;;;;;0.00;0.00;;;14.90;88.80;;;;;;4158862;28;20206;-70
2022/09/30 01:46:30;;;;;;;0.00;0.00;;;14.90;88.80;;;;;;4159761;28;20059;-69
2022/09/30 01:49:20;;;;;;;0.00;0.00;;;14.90;88.80;;;;;;4167849;28;20055;-70
2022/09/30 01:52:07;;;;;;;0.00;0.00;;;14.90;88.90;;;;;;4174658;28;20509;-69
2022/09/30 01:54:53;;;;;;;0.70;0.55;;;14.90;88.90;;;;;;4173049;28;20055;-69
2022/09/30 01:57:45;;;;;;;0.00;0.00;;;14.90;88.90;;;;;;4158638;28;20402;-69
2022/09/30 02:00:27;;;;;;;1.58;1.55;;;14.90;88.90;;;;;;4158803;28;20616;-68
2022/09/30 02:03:12;;;;;;;0.00;0.00;;;14.90;89.70;;;;;;4158754;28;20410;-68
2022/09/30 02:06:01;;;;;;;0.03;0.03;;;14.90;88.90;;;;;;4158709;28;20130;-68
2022/09/30 02:08:46;;;;;;;0.00;0.00;;;14.90;88.90;;;;;;4158542;28;20398;-68
2022/09/30 02:11:29;;;;;;;0.32;0.32;;;14.90;88.90;;;;;;4158332;28;20097;-68
2022/09/30 02:14:18;;;;;;;0.00;0.00;;;14.90;88.90;;;;;;4158002;28;20414;-68
2022/09/30 02:17:03;;;;;;;0.00;0.00;;;14.80;89.00;;;;;;4157558;28;20052;-68
2022/09/30 02:19:47;;;;;;;0.10;0.10;;;14.80;88.90;;;;;;4158618;28;20083;-68
2022/09/30 02:22:35;;;;;;;0.20;0.20;;;14.80;88.90;;;;;;4164242;28;20071;-68
2022/09/30 02:25:26;;;;;;;0.80;0.80;;;14.80;89.00;;;;;;4144627;28;20048;-67
2022/09/30 02:28:15;;;;;;;0.00;0.00;;;14.80;89.00;;;;;;4117834;28;20087;-69
2022/09/30 02:31:00;;;;;;;0.32;0.32;;;14.80;89.00;;;;;;4125490;28;20060;-68
2022/09/30 02:33:47;;;;;;;0.08;0.08;;;14.80;89.00;;;;;;4154499;28;20056;-68
2022/09/30 02:36:38;;;;;;;0.80;0.80;;;14.80;89.10;;;;;;4151994;28;20060;-68
2022/09/30 02:39:32;;;;;;;0.00;0.00;;;14.80;89.10;;;;;;4149165;28;20052;-67
2022/09/30 02:42:27;;;;;;;1.00;0.82;;;14.80;89.20;;;;;;4156175;28;20410;-70
2022/09/30 02:45:15;;;;;;;0.22;0.22;;;14.80;89.10;;;;;;4155325;28;20056;-68
2022/09/30 02:48:11;;;;;;;0.00;0.00;;;14.80;89.10;;;;;;4164066;28;20051;-68
2022/09/30 02:51:02;;;;;;;0.00;0.00;;;14.80;89.10;;;;;;4142751;28;20053;-68
2022/09/30 02:54:00;;;;;;;0.15;0.15;;;14.80;89.20;;;;;;4145077;28;20062;-69
2022/09/30 02:57:01;;;;;;;0.00;0.00;;;14.80;89.20;;;;;;4137386;28;20056;-68
2022/09/30 02:59:42;;;;;;;0.00;0.00;;;14.80;89.20;;;;;;4128840;28;20193;-69
2022/09/30 03:02:24;;;;;;;0.00;0.00;;;14.80;89.10;;;;;;4148372;28;20053;-68
2022/09/30 03:05:16;;;;;;;0.00;0.00;;;14.80;89.10;;;;;;4147112;28;20866;-68
2022/09/30 03:08:01;;;;;;;0.10;0.10;;;14.80;89.00;;;;;;4158855;28;20156;-68
2022/09/30 03:10:49;;;;;;;0.00;0.00;;;14.80;89.00;;;;;;4147256;28;20514;-68
2022/09/30 03:14:10;;;;;;;0.00;0.00;;;14.70;88.90;;;;;;4127427;28;20056;-68
2022/09/30 03:17:27;;;;;;;0.00;0.00;;;14.70;88.90;;;;;;4139861;28;20529;-68
2022/09/30 03:20:34;;;;;;;0.17;0.17;;;14.70;88.90;;;;;;4141093;28;20048;-69
2022/09/30 03:23:46;;;;;;;0.00;0.00;;;14.70;88.80;;;;;;4142973;28;20100;-69
2022/09/30 03:26:41;;;;;;;0.00;0.00;;;14.70;88.90;;;;;;4138473;28;20188;-67
2022/09/30 03:29:34;;;;;;;0.10;0.10;;;14.70;88.80;;;;;;4144131;28;20083;-67
2022/09/30 03:32:38;;;;;;;0.00;0.00;;;14.70;88.90;;;;;;4158778;28;20068;-67
2022/09/30 03:35:28;;;;;;;0.00;0.00;;;14.70;88.90;;;;;;4149467;28;20171;-67
2022/09/30 03:38:28;;;;;;;0.00;0.00;;;14.70;88.90;;;;;;4150252;28;20056;-67
2022/09/30 03:41:17;;;;;;;0.00;0.00;;;14.70;89.00;;;;;;4150928;28;20572;-67
2022/09/30 03:44:05;;;;;;;0.00;0.00;;;14.70;89.00;;;;;;4141358;28;20204;-68
2022/09/30 03:46:59;;;;;;;0.00;0.00;;;14.70;88.90;;;;;;4158298;28;20044;-67
2022/09/30 03:49:48;;;;;;;0.00;0.00;;;14.70;88.90;;;;;;4130360;28;20118;-67
2022/09/30 03:52:35;;;;;;;0.00;0.00;;;14.70;88.90;;;;;;4146124;28;20209;-68
2022/09/30 03:55:17;;;;;;;0.00;0.00;;;14.70;88.80;;;;;;4143246;28;20065;-67
2022/09/30 03:57:58;;;;;;;0.00;0.00;;;14.70;88.90;;;;;;4144027;28;20415;-67
2022/09/30 04:00:46;;;;;;;0.00;0.00;;;14.60;88.80;;;;;;4160630;28;20103;-67
2022/09/30 04:03:28;;;;;;;0.45;0.45;;;14.60;88.70;;;;;;4147801;28;20056;-67
2022/09/30 04:06:13;;;;;;;0.20;0.20;;;14.70;88.80;;;;;;4160074;28;20453;-67
2022/09/30 04:08:57;;;;;;;0.00;0.00;;;14.60;88.80;;;;;;4158932;28;20084;-67
2022/09/30 04:11:37;;;;;;;0.00;0.00;;;14.60;88.80;;;;;;4152436;28;20077;-68
2022/09/30 04:14:18;;;;;;;0.00;0.00;;;14.60;89.60;;;;;;4123297;28;20056;-67
2022/09/30 04:16:59;;;;;;;0.00;0.00;;;14.60;88.70;;;;;;4147749;28;20056;-68
2022/09/30 04:19:41;;;;;;;0.00;0.00;;;14.60;88.70;;;;;;4136873;28;20837;-68
2022/09/30 04:22:22;;;;;;;0.10;0.10;;;14.60;88.80;;;;;;4146165;28;20072;-68
2022/09/30 04:25:07;;;;;;;0.00;0.00;;;14.60;88.80;;;;;;4143717;28;20048;-69
2022/09/30 04:27:48;;;;;;;0.20;0.20;;;14.60;88.70;;;;;;4142488;28;20060;-68
2022/09/30 04:30:29;;;;;;;1.67;1.40;;;14.60;88.70;;;;;;4144004;28;20626;-68
2022/09/30 04:33:13;;;;;;;0.00;0.00;;;14.60;88.60;;;;;;4143785;28;20115;-68
2022/09/30 04:35:57;;;;;;;0.00;0.00;;;14.60;88.40;;;;;;4143349;28;20224;-68
2022/09/30 04:38:38;;;;;;;0.00;0.00;;;14.60;88.40;;;;;;4155032;28;20052;-68
2022/09/30 04:41:19;;;;;;;0.10;0.10;;;14.60;88.30;;;;;;4153297;28;20161;-68
2022/09/30 04:44:04;;;;;;;0.20;0.20;;;14.60;88.20;;;;;;4143661;28;20507;-67
2022/09/30 04:46:45;;;;;;;0.00;0.00;;;14.70;88.10;;;;;;4143717;28;20048;-67
2022/09/30 04:49:26;;;;;;;0.10;0.10;;;14.60;87.90;;;;;;4142748;28;20044;-68
2022/09/30 04:52:09;;;;;;;0.00;0.00;;;14.70;87.80;;;;;;4156313;28;20052;-68
2022/09/30 04:54:49;;;;;;;0.00;0.00;;;14.60;87.60;;;;;;4159965;28;20053;-68
2022/09/30 04:57:30;;;;;;;0.00;0.00;;;14.70;87.50;;;;;;4158669;28;20056;-68
2022/09/30 05:00:12;;;;;;;0.00;0.00;;;14.60;87.60;;;;;;4159329;28;20138;-69
2022/09/30 05:02:53;;;;;;;0.08;0.08;;;14.70;87.80;;;;;;4143305;28;20053;-68
2022/09/30 05:05:34;;;;;;;0.00;0.00;;;14.60;87.80;;;;;;4143231;28;20184;-68
2022/09/30 05:08:17;;;;;;;0.03;0.03;;;14.60;87.70;;;;;;4143621;28;20188;-68
2022/09/30 05:11:00;;;;;;;0.10;0.10;;;14.60;88.50;;;;;;4148878;28;20429;-69
2022/09/30 05:13:41;;;;;;;0.00;0.00;;;14.60;87.70;;;;;;4159253;28;20103;-68
2022/09/30 05:16:22;;;;;;;0.00;0.00;;;14.60;87.80;;;;;;4159619;28;20083;-66
2022/09/30 05:19:03;;;;;;;0.00;0.00;;;14.60;87.90;;;;;;4143488;28;20403;-66
2022/09/30 05:21:45;;;;;;;0.00;0.00;;;14.50;87.90;;;;;;4144492;28;20136;-68
2022/09/30 05:24:28;;;;;;;0.00;0.00;;;14.50;88.00;;;;;;4150007;28;20187;-67
2022/09/30 05:27:09;;;;;;;0.00;0.00;;;14.50;88.30;;;;;;4157055;28;20047;-70
2022/09/30 05:29:50;;;;;;;0.00;0.00;;;14.60;89.00;;;;;;4138872;28;20203;-69
2022/09/30 05:32:31;;;;;;;0.10;0.10;;;14.60;88.80;;;;;;4155146;28;20516;-70
2022/09/30 05:35:13;;;;;;;0.00;0.00;;;14.60;88.60;;;;;;4150248;28;20099;-69
2022/09/30 05:37:54;;;;;;;0.00;0.00;;;14.60;88.50;;;;;;4139791;28;20760;-68
2022/09/30 05:40:37;;;;;;;0.00;0.00;;;14.60;88.40;;;;;;4142906;28;20151;-67
2022/09/30 05:43:18;;;;;;;0.00;0.00;;;14.50;88.30;;;;;;4139957;28;20494;-68
2022/09/30 05:45:59;;;;;;;0.43;0.43;;;14.50;88.30;;;;;;4147455;28;20190;-68
2022/09/30 05:48:40;;;;;;;0.00;0.00;;;14.50;88.30;;;;;;4144662;28;20403;-68
2022/09/30 05:51:21;;;;;;;0.00;0.00;;;14.50;88.30;;;;;;4152294;28;20118;-68
2022/09/30 05:54:02;;;;;;;0.00;0.00;;;14.40;88.10;;;;;;4156298;28;20049;-69
2022/09/30 05:56:45;;;;;;;0.00;0.00;;;14.50;88.00;;;;;;4144476;28;20125;-68
2022/09/30 05:59:26;;;;;;;0.32;0.32;;;14.40;87.90;;;;;;4129846;28;20057;-69
2022/09/30 06:02:06;;;;;;;0.00;0.00;;;14.40;87.80;;;;;;4142596;28;20184;-70
2022/09/30 06:04:47;;;;;;;0.00;0.00;;;14.40;87.80;;;;;;4142239;28;20284;-70
2022/09/30 06:07:28;;;;;;;0.00;0.00;;;14.40;88.00;;;;;;4141418;28;20053;-69
2022/09/30 06:10:11;;;;;;;0.00;0.00;;;14.40;88.00;;;;;;4138942;28;20045;-69
2022/09/30 06:12:53;;;;;;;0.00;0.00;;;14.40;88.10;;;;;;4158226;28;20052;-69
2022/09/30 06:15:35;;;;;;;0.00;0.00;;;14.40;89.10;;;;;;4157732;28;20048;-69
2022/09/30 06:18:16;;;;;;;0.00;0.00;;;14.40;88.30;;;;;;4155692;28;20079;-68
2022/09/30 06:20:57;;;;;;;0.00;0.00;;;14.40;88.40;;;;;;4142616;28;20586;-69
2022/09/30 06:23:38;;;;;;;0.10;0.10;;;14.40;88.50;;;;;;4130272;28;20132;-69
2022/09/30 06:26:22;;;;;;;0.00;0.00;;;14.40;88.50;;;;;;4141722;28;20060;-69
2022/09/30 06:29:04;;;;;;;0.00;0.00;;;14.40;88.50;;;;;;4152776;28;20502;-68
2022/09/30 06:31:45;;;;;;;0.10;0.10;;;14.30;88.60;;;;;;4157496;28;20047;-69
2022/09/30 06:34:26;;;;;;;0.00;0.00;;;14.30;88.80;;;;;;4158764;28;20552;-67
2022/09/30 06:37:10;;;;;;;0.00;0.00;;;14.30;88.70;;;;;;4151686;28;20580;-69
2022/09/30 06:39:51;;;;;;;0.00;0.00;;;14.40;90.90;;;;;;4120154;28;20052;-71
2022/09/30 06:42:32;;;;;;;0.00;0.00;;;14.40;91.80;;;;;;4128774;28;20056;-68
2022/09/30 06:45:20;;;;;;;0.00;0.00;;;14.40;92.60;;;;;;4135527;28;20071;-69
2022/09/30 06:48:16;;;;;;;0.00;0.00;;;14.50;93.10;;;;;;4119243;28;20456;-67
2022/09/30 06:51:12;;;;;;;0.00;0.00;;;14.40;93.30;;;;;;4127200;28;20057;-69
2022/09/30 06:54:22;;;;;;;0.00;0.00;;;14.40;92.40;;;;;;4092592;28;20417;-68
2022/09/30 06:57:08;;;;;;;0.00;0.00;;;14.40;92.00;;;;;;4110672;28;20094;-68
2022/09/30 06:59:49;;;;;;;0.00;0.00;;;14.40;91.60;;;;;;4103408;28;20065;-65
2022/09/30 07:02:52;;;;;;;0.00;0.00;;;14.40;91.40;;;;;;4080607;28;20604;-66
2022/09/30 07:05:56;;;;;;;0.00;0.00;;;14.40;91.20;;;;;;4077606;28;20055;-68
2022/09/30 07:08:38;;;;;;;6.70;2.13;;;14.40;91.00;;;;;;4083731;28;20140;-67
2022/09/30 07:11:25;;;;;;;0.00;0.00;;;14.40;90.80;;;;;;4120278;28;20160;-67
2022/09/30 07:14:14;;;;;;;0.00;0.00;;;14.40;90.70;;;;;;4121628;28;20056;-66
2022/09/30 07:16:58;;;;;;;0.00;0.00;;;14.40;90.60;;;;;;4141206;28;20057;-65
2022/09/30 07:19:40;;;;;;;0.00;0.00;;;14.40;90.90;;;;;;4156622;28;20052;-66
2022/09/30 07:22:28;;;;;;;0.10;0.10;;;14.50;90.50;;;;;;4143350;28;20179;-66
2022/09/30 07:25:10;;;;;;;0.00;0.00;;;14.50;90.40;;;;;;4154750;28;20060;-69
2022/09/30 07:27:51;;;;;;;0.00;0.00;;;14.50;90.40;;;;;;4151532;28;20176;-70
2022/09/30 07:30:32;;;;;;;0.43;0.43;;;14.60;90.70;;;;;;4145489;28;20053;-68
2022/09/30 07:33:15;;;;;;;0.00;0.00;;;14.60;90.40;;;;;;4156303;28;20138;-68
2022/09/30 07:35:59;;;;;;;0.08;0.08;;;14.60;90.40;;;;;;4160368;28;20040;-69
2022/09/30 07:38:42;;;;;;;0.00;0.00;;;14.60;90.40;;;;;;4140639;28;20048;-69
2022/09/30 07:41:26;;;;;;;0.05;0.05;;;14.70;90.30;;;;;;4144054;28;20057;-69
2022/09/30 07:44:09;;;;;;;0.00;0.00;;;14.70;90.30;;;;;;4159636;28;20067;-70
2022/09/30 07:46:50;;;;;;;4.75;2.47;;;14.70;90.30;;;;;;4146770;28;20132;-69
2022/09/30 07:49:31;;;;;;;0.00;0.00;;;14.80;90.20;;;;;;4160546;28;20143;-70
2022/09/30 07:52:14;;;;;;;0.82;0.52;;;14.80;90.20;;;;;;4159688;28;20053;-69
2022/09/30 07:54:55;;;;;;;0.00;0.00;;;14.80;90.50;;;;;;4150752;28;20056;-70
2022/09/30 07:57:36;;;;;;;0.15;0.15;;;14.90;90.10;;;;;;4159483;28;20140;-69
2022/09/30 08:00:18;;;;;;;1.45;1.35;;;14.90;90.10;;;;;;4143085;28;20537;-73
2022/09/30 08:03:19;;;;;;;0.00;0.00;;;14.90;90.10;;;;;;4153660;28;20123;-70
2022/09/30 08:06:05;;;;;;;0.03;0.03;;;15.00;90.10;;;;;;4158981;28;20533;-74
2022/09/30 08:08:47;;;;;;;0.00;0.00;;;15.00;90.00;;;;;;4155624;28;20052;-72
2022/09/30 08:11:28;;;;;;;0.00;0.00;;;15.00;90.00;;;;;;4155043;28;20106;-75
2022/09/30 08:14:14;;;;;;;0.00;0.00;;;15.00;90.00;;;;;;4153628;28;20359;-77
2022/09/30 08:16:57;;;;;;;0.00;0.00;;;15.10;90.00;;;;;;4161251;28;20405;-79
2022/09/30 08:19:42;;;;;;;0.00;0.00;;;15.10;90.00;;;;;;4161148;28;20568;-80
2022/09/30 08:22:23;;;;;;;0.00;0.00;;;15.10;90.00;;;;;;4160716;28;20056;-77
2022/09/30 08:25:06;;;;;;;0.00;0.00;;;15.20;90.00;;;;;;4151883;28;20183;-77
2022/09/30 08:27:47;;;;;;;0.10;0.10;;;15.20;90.10;;;;;;4147722;28;20104;-76
2022/09/30 08:30:28;;;;;;;0.00;0.00;;;15.10;90.10;;;;;;4150213;28;20086;-80
2022/09/30 08:33:09;;;;;;;0.00;0.00;;;15.20;90.20;;;;;;4148543;28;20370;-78
2022/09/30 08:35:50;;;;;;;0.00;0.00;;;15.20;90.60;;;;;;4146878;28;20842;-79
2022/09/30 08:38:31;;;;;;;0.00;0.00;;;15.20;90.10;;;;;;4145475;28;20053;-79
2022/09/30 08:41:26;;;;;;;0.00;0.00;;;15.10;90.00;;;;;;4144790;28;20406;-79
2022/09/30 08:44:20;;;;;;;0.00;0.00;;;15.10;90.00;;;;;;4145382;28;20123;-79
2022/09/30 08:47:10;;;;;;;0.00;0.00;;;15.10;89.90;;;;;;4145029;28;20068;-79
2022/09/30 08:50:01;;;;;;;0.00;0.00;;;15.10;89.90;;;;;;4154759;28;20048;-80
2022/09/30 08:52:45;;;;;;;0.00;0.00;;;15.10;89.90;;;;;;4163126;28;20056;-71
2022/09/30 08:55:35;;;;;;;0.00;0.00;;;15.10;90.30;;;;;;4159858;28;20067;-78
2022/09/30 08:58:25;;;;;;;12.40;1.00;;;15.10;90.00;;;;;;4158502;28;20107;-77
2022/09/30 09:01:15;;;;;;;0.00;0.00;;;15.10;90.10;;;;;;4143957;28;20119;-78
2022/09/30 09:03:58;;;;;;;0.20;0.20;;;15.10;90.10;;;;;;4143387;28;20578;-76
2022/09/30 09:06:49;;;;;;;2.67;0.73;;;15.20;90.10;;;;;;4142959;28;20057;-74
2022/09/30 09:09:44;;;;;;;0.00;0.00;;;15.20;90.50;;;;;;4143146;28;20060;-69
2022/09/30 09:12:34;;;;;;;0.10;0.10;;;15.20;90.00;;;;;;4143836;28;20125;-76
2022/09/30 09:15:29;;;;;;;0.00;0.00;;;15.30;90.40;;;;;;4143730;28;20083;-78
2022/09/30 09:18:33;;;;;;;0.00;0.00;;;15.30;90.00;;;;;;4141384;28;20466;-77
2022/09/30 09:21:21;;;;;;;0.10;0.10;;;15.40;90.00;;;;;;4142748;28;20052;-78
2022/09/30 09:24:03;;;;;;;0.00;0.00;;;15.40;89.90;;;;;;4142727;28;20044;-76
2022/09/30 09:26:44;;;;;;;0.00;0.00;;;15.40;89.90;;;;;;4144388;28;20045;-75
2022/09/30 09:29:39;;;;;;;0.52;0.52;;;15.50;89.80;;;;;;4159621;28;20179;-75
2022/09/30 09:32:21;;;;;;;0.00;0.00;;;15.50;89.60;;;;;;4159134;28;20762;-76
2022/09/30 09:35:13;;;;;;;0.00;0.00;;;15.50;89.50;;;;;;4144581;28;20056;-76
2022/09/30 09:41:22;;;;;;;0.08;0.08;;;15.60;89.40;;;;;;4142598;28;20057;-75
2022/09/30 09:44:11;;;;;;;0.00;0.00;;;15.60;89.20;;;;;;4142988;28;20120;-75
2022/09/30 09:47:00;;;;;;;0.10;0.10;;;15.60;88.80;;;;;;4142413;28;20123;-76
2022/09/30 09:49:44;;;;;;;0.00;0.00;;;15.70;88.50;;;;;;4142750;28;20504;-75
2022/09/30 09:52:54;;;;;;;0.00;0.00;;;15.70;88.20;;;;;;4142439;28;20183;-75
2022/09/30 09:55:37;;;;;;;0.00;0.00;;;15.70;88.00;;;;;;4145536;28;20064;-75
2022/09/30 09:58:18;;;;;;;0.00;0.00;;;15.70;87.90;;;;;;4158234;28;20049;-75
2022/09/30 10:01:31;;;;;;;0.00;0.00;;;15.80;87.80;;;;;;4158412;28;20052;-75
2022/09/30 10:04:20;;;;;;;0.00;0.00;;;15.80;87.60;;;;;;4150613;28;20048;-76
2022/09/30 10:07:14;;;;;;;0.00;0.00;;;15.80;87.50;;;;;;4157950;28;20045;-75
2022/09/30 10:10:08;;;;;;;0.00;0.00;;;15.80;87.20;;;;;;4153762;28;20056;-75
2022/09/30 10:12:49;;;;;;;0.15;0.15;;;15.80;87.10;;;;;;4150669;28;20064;-74
2022/09/30 10:15:30;;;;;;;0.20;0.20;;;15.90;86.90;;;;;;4141518;28;20065;-75
2022/09/30 10:18:20;;;;;;;0.00;0.00;;;15.90;86.80;;;;;;4141824;28;20112;-74
2022/09/30 10:21:05;;;;;;;0.00;0.00;;;15.90;86.60;;;;;;4153882;28;20462;-76
2022/09/30 10:23:50;;;;;;;0.40;0.40;;;15.90;86.50;;;;;;4156483;28;20048;-74
2022/09/30 10:26:43;;;;;;;0.00;0.00;;;15.90;86.30;;;;;;4145479;28;20060;-75
2022/09/30 10:29:30;;;;;;;0.00;0.00;;;15.90;86.20;;;;;;4145856;28;20060;-74
2022/09/30 10:32:15;;;;;;;0.00;0.00;;;15.90;86.10;;;;;;4158586;28;20106;-73
2022/09/30 10:35:02;;;;;;;0.00;0.00;;;15.90;86.00;;;;;;4152072;28;20049;-75
2022/09/30 10:37:51;;;;;;;0.00;0.00;;;16.00;86.10;;;;;;4155969;28;20504;-75
2022/09/30 10:40:34;;;;;;;0.10;0.10;;;16.00;85.90;;;;;;4142505;28;20073;-74
2022/09/30 10:43:21;;;;;;;0.00;0.00;;;16.00;85.80;;;;;;4142957;28;20167;-74
2022/09/30 10:46:03;;;;;;;0.00;0.00;;;16.00;85.70;;;;;;4150826;28;20052;-75
2022/09/30 10:49:09;;;;;;;0.00;0.00;;;16.10;85.60;;;;;;4161145;28;20178;-75
2022/09/30 10:51:50;;;;;;;0.00;0.00;;;16.10;85.40;;;;;;4144265;28;20143;-75
2022/09/30 10:54:46;;;;;;;0.00;0.00;;;16.10;85.40;;;;;;4145109;28;20060;-74
2022/09/30 10:57:32;;;;;;;0.00;0.00;;;16.10;85.30;;;;;;4144326;28;20490;-74
2022/09/30 11:00:17;;;;;;;0.00;0.00;;;16.10;85.40;;;;;;4150865;28;20091;-74
2022/09/30 11:03:03;;;;;;;6.32;1.65;;;16.20;85.60;;;;;;4143896;28;20060;-74
2022/09/30 11:05:46;;;;;;;0.10;0.10;;;16.20;85.60;;;;;;4145281;28;20049;-73
2022/09/30 11:08:33;;;;;;;1.13;1.08;;;16.20;85.60;;;;;;4145809;28;20053;-72
2022/09/30 11:11:18;;;;;;;0.00;0.00;;;16.20;85.50;;;;;;4153952;28;20201;-69
2022/09/30 11:14:17;;;;;;;2.40;2.20;;;16.20;85.40;;;;;;4145041;28;20057;-69
2022/09/30 11:17:09;;;;;;;0.10;0.10;;;16.20;85.00;;;;;;4144691;28;20103;-69
2022/09/30 11:19:55;;;;;;;0.00;0.00;;;16.30;84.90;;;;;;4160207;28;20052;-75
2022/09/30 11:22:42;;;;;;;0.00;0.00;;;16.30;84.80;;;;;;4161267;28;20053;-74
2022/09/30 11:25:30;;;;;;;0.00;0.00;;;16.30;84.70;;;;;;4149049;28;20053;-74
2022/09/30 11:28:32;;;;;;;0.00;0.00;;;16.40;84.70;;;;;;4145198;28;20045;-74
2022/09/30 11:31:26;;;;;;;0.00;0.00;;;16.40;84.30;;;;;;4143997;28;20140;-75
2022/09/30 11:34:24;;;;;;;0.00;0.00;;;16.40;84.00;;;;;;4144901;28;20586;-74
2022/09/30 11:37:12;;;;;;;0.20;0.20;;;16.50;84.60;;;;;;4160229;28;20052;-75
2022/09/30 11:40:16;;;;;;;0.00;0.00;;;16.50;83.50;;;;;;4160808;28;20048;-73
2022/09/30 11:43:06;;;;;;;0.00;0.00;;;16.50;83.20;;;;;;4144686;28;20053;-68
2022/09/30 11:46:09;;;;;;;0.00;0.00;;;16.50;82.90;;;;;;4158901;28;20505;-68
2022/09/30 11:49:04;;;;;;;0.00;0.00;;;16.60;83.60;;;;;;4160006;28;20052;-69
2022/09/30 11:51:54;;;;;;;0.30;0.30;;;16.60;82.50;;;;;;4160253;28;20060;-75
2022/09/30 11:54:50;;;;;;;0.00;0.00;;;16.60;83.20;;;;;;4156259;28;20052;-75
2022/09/30 11:57:36;;;;;;;0.00;0.00;;;16.70;82.10;;;;;;4145008;28;20586;-75
2022/09/30 12:00:18;;;;;;;0.00;0.00;;;16.70;81.50;;;;;;4151279;28;20103;-75
2022/09/30 12:03:05;;;;;;;0.00;0.00;;;16.70;81.30;;;;;;4160697;28;20072;-75
2022/09/30 12:05:55;;;;;;;0.00;0.00;;;16.70;81.30;;;;;;4144038;28;20053;-74
2022/09/30 12:08:40;;;;;;;0.00;0.00;;;16.80;80.90;;;;;;4154775;28;20067;-74
2022/09/30 12:11:33;;;;;;;0.10;0.10;;;16.80;80.60;;;;;;4160337;28;20477;-75
2022/09/30 12:14:20;;;;;;;0.00;0.00;;;16.80;80.30;;;;;;4160048;28;20540;-74
2022/09/30 12:17:04;;;;;;;0.00;0.00;;;16.80;80.00;;;;;;4170554;28;20044;-74
2022/09/30 12:19:49;;;;;;;0.00;0.00;;;16.90;79.60;;;;;;4158644;28;20045;-75
2022/09/30 12:22:38;;;;;;;0.00;0.00;;;16.90;80.10;;;;;;4144248;28;20450;-74
2022/09/30 12:25:21;;;;;;;0.00;0.00;;;16.90;79.00;;;;;;4145284;28;20053;-74
2022/09/30 12:30:15;;;;;;;0.00;0.00;;;16.90;78.90;;;;;;4155212;28;20053;-73
2022/09/30 12:31:22;;;;;;;0.00;0.00;;;16.90;78.80;;;;;;4146191;28;20060;-74
2022/09/30 12:34:21;;;;;;;0.00;0.00;;;16.90;78.80;;;;;;4151076;28;20130;-73
2022/09/30 12:37:21;;;;;;;0.00;0.00;;;16.90;78.30;;;;;;4143800;28;20517;-72
2022/09/30 12:40:23;;;;;;;0.00;0.00;;;16.90;77.80;;;;;;4154074;28;20056;-72
2022/09/30 12:43:25;;;;;;;0.00;0.00;;;17.00;77.60;;;;;;4152462;28;20127;-72
2022/09/30 12:46:15;;;;;;;0.00;0.00;;;17.00;77.60;;;;;;4143241;28;20060;-71
2022/09/30 12:49:00;;;;;;;0.00;0.00;;;17.00;77.30;;;;;;4143743;28;20383;-72
2022/09/30 12:51:43;;;;;;;0.00;0.00;;;17.00;77.10;;;;;;4143067;28;20643;-73
2022/09/30 12:54:30;;;;;;;0.00;0.00;;;17.00;78.00;;;;;;4143495;28;20505;-75
2022/09/30 12:57:19;;;;;;;0.00;0.00;;;17.00;77.30;;;;;;4142357;28;20044;-74
2022/09/30 13:00:04;;;;;;;0.00;0.00;;;17.10;77.60;;;;;;4143750;28;20057;-75
2022/09/30 13:02:49;;;;;;;0.13;0.13;;;17.10;77.60;;;;;;4144185;28;20060;-75
2022/09/30 13:05:58;;;;;;;0.20;0.20;;;17.10;77.20;;;;;;4144021;28;20053;-75
2022/09/30 13:08:47;;;;;;;0.00;0.00;;;17.10;76.90;;;;;;4145388;28;20080;-75
2022/09/30 13:11:40;;;;;;;0.13;0.13;;;17.10;76.60;;;;;;4159104;28;20049;-75
2022/09/30 13:14:42;;;;;;;0.00;0.00;;;17.10;77.40;;;;;;4151110;28;20498;-75
2022/09/30 13:17:26;;;;;;;0.20;0.20;;;17.10;76.70;;;;;;4146427;28;20135;-76
2022/09/30 13:20:40;;;;;;;0.08;0.08;;;17.10;76.10;;;;;;4159552;28;20057;-77
2022/09/30 13:23:36;;;;;;;0.45;0.43;;;17.10;75.90;;;;;;4159217;28;20427;-75
2022/09/30 13:26:38;;;;;;;0.00;0.00;;;17.10;75.90;;;;;;4158698;28;20398;-76
2022/09/30 13:29:37;;;;;;;0.00;0.00;;;17.10;75.90;;;;;;4142653;28;20442;-76
2022/09/30 13:32:36;;;;;;;0.10;0.10;;;17.00;75.80;;;;;;4142601;28;20049;-75
2022/09/30 13:35:31;;;;;;;0.10;0.10;;;17.10;76.00;;;;;;4144776;28;20065;-77
2022/09/30 13:38:17;;;;;;;0.00;0.00;;;17.00;75.90;;;;;;4145322;28;20060;-74
2022/09/30 13:41:05;;;;;;;0.00;0.00;;;17.00;75.90;;;;;;4142873;28;20418;-76
2022/09/30 13:43:55;;;;;;;0.00;0.00;;;17.00;75.80;;;;;;4153064;28;20406;-76
2022/09/30 13:46:43;;;;;;;0.00;0.00;;;17.00;75.80;;;;;;4142641;28;20530;-76
2022/09/30 13:49:42;;;;;;;0.00;0.00;;;16.90;75.80;;;;;;4142573;28;20163;-75
2022/09/30 13:52:28;;;;;;;0.00;0.00;;;16.90;75.80;;;;;;4142694;28;20048;-75
2022/09/30 13:55:17;;;;;;;0.05;0.05;;;16.90;76.70;;;;;;4152061;28;20512;-76
2022/09/30 13:58:08;;;;;;;0.00;0.00;;;16.90;76.10;;;;;;4158888;28;20389;-74
2022/09/30 14:00:54;;;;;;;;;;;17.00;76.40;;;;;;4159227;28;20132;-75
2022/09/30 14:03:55;;;;;;;0.00;0.00;;;17.00;76.70;;;;;;4142185;28;19928;-75
2022/09/30 14:06:46;;;;;;;0.15;0.15;;;17.00;76.70;;;;;;4158148;28;20059;-73
2022/09/30 14:10:01;;;;;;;0.00;0.00;;;17.00;76.50;;;;;;4147688;28;21607;-75
2022/09/30 14:13:01;;;;;;;0.20;0.20;;;17.00;76.20;;;;;;4142113;28;20056;-74
2022/09/30 14:15:55;;;;;;;0.00;0.00;;;17.00;75.80;;;;;;4151771;28;20126;-74
2022/09/30 14:18:53;;;;;;;0.00;0.00;;;17.00;75.60;;;;;;4156542;28;20052;-75
2022/09/30 14:21:39;;;;;;;0.00;0.00;;;17.00;75.60;;;;;;4159146;28;20052;-75
2022/09/30 14:24:24;;;;;;;0.73;0.52;;;17.00;75.60;;;;;;4161615;28;20045;-74
2022/09/30 14:27:32;;;;;;;0.05;0.05;;;17.00;75.60;;;;;;4148215;28;20133;-74
2022/09/30 14:30:17;;;;;;;0.28;0.28;;;17.00;75.50;;;;;;4145516;28;20057;-75
2022/09/30 14:33:02;;;;;;;0.00;0.00;;;17.00;76.50;;;;;;4145705;28;20525;-67
2022/09/30 14:35:43;;;;;;;0.00;0.00;;;17.00;75.60;;;;;;4144861;28;20057;-67
2022/09/30 14:38:28;;;;;;;0.08;0.08;;;16.90;75.50;;;;;;4153580;28;20056;-67